sensor_id;sensor_type;location;lat;lon;timestamp;P1;durP1;ratioP1;P2;durP2;ratioP2
74648;SDS011;63168;49.280;7.214;2023-01-29T00:00:27;3.33;;;1.70;;
74648;SDS011;63168;49.280;7.214;2023-01-29T00:02:55;3.63;;;1.75;;
74648;SDS011;63168;49.280;7.214;2023-01-29T00:05:20;3.40;;;1.80;;
74648;SDS011;63168;49.280;7.214;2023-01-29T00:07:46;3.95;;;1.80;;
74648;SDS011;63168;49.280;7.214;2023-01-29T00:10:11;2.77;;;1.60;;
74648;SDS011;63168;49.280;7.214;2023-01-29T00:12:37;4.15;;;1.77;;
74648;SDS011;63168;49.280;7.214;2023-01-29T00:15:03;3.93;;;1.70;;
74648;SDS011;63168;49.280;7.214;2023-01-29T00:17:29;3.63;;;1.77;;
74648;SDS011;63168;49.280;7.214;2023-01-29T00:19:55;3.03;;;1.70;;
74648;SDS011;63168;49.280;7.214;2023-01-29T00:22:21;3.63;;;1.50;;
74648;SDS011;63168;49.280;7.214;2023-01-29T00:24:46;3.60;;;1.70;;
74648;SDS011;63168;49.280;7.214;2023-01-29T00:27:12;2.90;;;1.40;;
74648;SDS011;63168;49.280;7.214;2023-01-29T00:29:37;3.03;;;1.47;;
74648;SDS011;63168;49.280;7.214;2023-01-29T00:32:03;3.27;;;1.70;;
74648;SDS011;63168;49.280;7.214;2023-01-29T00:34:28;3.15;;;1.60;;
74648;SDS011;63168;49.280;7.214;2023-01-29T00:36:55;3.63;;;1.73;;
74648;SDS011;63168;49.280;7.214;2023-01-29T00:39:28;3.07;;;1.57;;
74648;SDS011;63168;49.280;7.214;2023-01-29T00:42:02;3.13;;;1.63;;
74648;SDS011;63168;49.280;7.214;2023-01-29T00:44:46;3.20;;;1.58;;
74648;SDS011;63168;49.280;7.214;2023-01-29T00:47:24;2.95;;;1.60;;
74648;SDS011;63168;49.280;7.214;2023-01-29T00:49:57;2.80;;;1.50;;
74648;SDS011;63168;49.280;7.214;2023-01-29T00:52:24;3.00;;;1.50;;
74648;SDS011;63168;49.280;7.214;2023-01-29T00:54:50;3.03;;;1.77;;
74648;SDS011;63168;49.280;7.214;2023-01-29T00:57:16;3.35;;;1.50;;
74648;SDS011;63168;49.280;7.214;2023-01-29T00:59:41;2.67;;;1.60;;
74648;SDS011;63168;49.280;7.214;2023-01-29T01:02:07;3.17;;;1.60;;
74648;SDS011;63168;49.280;7.214;2023-01-29T01:04:51;2.70;;;1.40;;
74648;SDS011;63168;49.280;7.214;2023-01-29T01:07:16;2.97;;;1.50;;
74648;SDS011;63168;49.280;7.214;2023-01-29T01:09:43;2.30;;;1.30;;
74648;SDS011;63168;49.280;7.214;2023-01-29T01:12:35;2.60;;;1.40;;
74648;SDS011;63168;49.280;7.214;2023-01-29T01:15:00;2.50;;;1.33;;
74648;SDS011;63168;49.280;7.214;2023-01-29T01:17:25;2.47;;;1.25;;
74648;SDS011;63168;49.280;7.214;2023-01-29T01:19:51;2.80;;;1.37;;
74648;SDS011;63168;49.280;7.214;2023-01-29T01:22:16;2.60;;;1.33;;
74648;SDS011;63168;49.280;7.214;2023-01-29T01:24:42;3.75;;;1.50;;
74648;SDS011;63168;49.280;7.214;2023-01-29T01:27:08;3.07;;;1.67;;
74648;SDS011;63168;49.280;7.214;2023-01-29T01:29:34;2.80;;;1.50;;
74648;SDS011;63168;49.280;7.214;2023-01-29T01:31:59;2.40;;;1.33;;
74648;SDS011;63168;49.280;7.214;2023-01-29T01:34:25;3.40;;;1.55;;
74648;SDS011;63168;49.280;7.214;2023-01-29T01:36:51;2.65;;;1.60;;
74648;SDS011;63168;49.280;7.214;2023-01-29T01:39:16;2.97;;;1.43;;
74648;SDS011;63168;49.280;7.214;2023-01-29T01:41:43;2.53;;;1.30;;
74648;SDS011;63168;49.280;7.214;2023-01-29T01:47:07;3.35;;;1.70;;
74648;SDS011;63168;49.280;7.214;2023-01-29T01:49:33;2.50;;;1.30;;
74648;SDS011;63168;49.280;7.214;2023-01-29T01:51:58;2.70;;;1.37;;
74648;SDS011;63168;49.280;7.214;2023-01-29T01:54:26;2.83;;;1.40;;
74648;SDS011;63168;49.280;7.214;2023-01-29T01:56:55;2.45;;;1.20;;
74648;SDS011;63168;49.280;7.214;2023-01-29T01:59:33;2.70;;;1.20;;
74648;SDS011;63168;49.280;7.214;2023-01-29T02:02:01;2.60;;;1.30;;
74648;SDS011;63168;49.280;7.214;2023-01-29T02:04:46;2.55;;;1.38;;
74648;SDS011;63168;49.280;7.214;2023-01-29T02:07:31;3.20;;;1.40;;
74648;SDS011;63168;49.280;7.214;2023-01-29T02:10:16;2.53;;;1.20;;
74648;SDS011;63168;49.280;7.214;2023-01-29T02:12:44;3.00;;;1.40;;
74648;SDS011;63168;49.280;7.214;2023-01-29T02:15:09;2.05;;;1.08;;
74648;SDS011;63168;49.280;7.214;2023-01-29T02:17:36;2.65;;;1.13;;
74648;SDS011;63168;49.280;7.214;2023-01-29T02:20:02;2.72;;;1.20;;
74648;SDS011;63168;49.280;7.214;2023-01-29T02:22:58;2.78;;;1.20;;
74648;SDS011;63168;49.280;7.214;2023-01-29T02:25:55;2.38;;;1.20;;
74648;SDS011;63168;49.280;7.214;2023-01-29T02:28:31;2.70;;;1.40;;
74648;SDS011;63168;49.280;7.214;2023-01-29T02:31:05;2.25;;;1.30;;
74648;SDS011;63168;49.280;7.214;2023-01-29T02:33:39;1.67;;;1.00;;
74648;SDS011;63168;49.280;7.214;2023-01-29T02:36:14;1.75;;;1.00;;
74648;SDS011;63168;49.280;7.214;2023-01-29T02:38:48;2.70;;;1.20;;
74648;SDS011;63168;49.280;7.214;2023-01-29T02:41:24;2.47;;;1.20;;
74648;SDS011;63168;49.280;7.214;2023-01-29T02:43:56;2.08;;;1.20;;
74648;SDS011;63168;49.280;7.214;2023-01-29T02:46:31;2.13;;;1.00;;
74648;SDS011;63168;49.280;7.214;2023-01-29T02:49:04;2.40;;;1.10;;
74648;SDS011;63168;49.280;7.214;2023-01-29T02:51:35;1.80;;;1.10;;
74648;SDS011;63168;49.280;7.214;2023-01-29T02:54:05;2.03;;;1.10;;
74648;SDS011;63168;49.280;7.214;2023-01-29T02:56:35;2.25;;;1.20;;
74648;SDS011;63168;49.280;7.214;2023-01-29T02:59:07;2.08;;;1.00;;
74648;SDS011;63168;49.280;7.214;2023-01-29T03:01:39;2.03;;;1.13;;
74648;SDS011;63168;49.280;7.214;2023-01-29T03:04:10;2.78;;;1.20;;
74648;SDS011;63168;49.280;7.214;2023-01-29T03:06:40;1.90;;;1.07;;
74648;SDS011;63168;49.280;7.214;2023-01-29T03:09:08;1.98;;;1.00;;
74648;SDS011;63168;49.280;7.214;2023-01-29T03:11:37;1.83;;;1.10;;
74648;SDS011;63168;49.280;7.214;2023-01-29T03:14:07;1.90;;;1.08;;
74648;SDS011;63168;49.280;7.214;2023-01-29T03:16:38;2.33;;;1.10;;
74648;SDS011;63168;49.280;7.214;2023-01-29T03:19:07;1.80;;;1.20;;
74648;SDS011;63168;49.280;7.214;2023-01-29T03:21:37;2.20;;;1.07;;
74648;SDS011;63168;49.280;7.214;2023-01-29T03:24:20;1.95;;;1.10;;
74648;SDS011;63168;49.280;7.214;2023-01-29T03:27:12;1.65;;;1.00;;
74648;SDS011;63168;49.280;7.214;2023-01-29T03:30:00;1.63;;;1.00;;
74648;SDS011;63168;49.280;7.214;2023-01-29T03:32:46;2.22;;;1.10;;
74648;SDS011;63168;49.280;7.214;2023-01-29T03:35:16;1.98;;;1.05;;
74648;SDS011;63168;49.280;7.214;2023-01-29T03:37:46;1.47;;;0.90;;
74648;SDS011;63168;49.280;7.214;2023-01-29T03:40:12;2.07;;;1.10;;
74648;SDS011;63168;49.280;7.214;2023-01-29T03:42:51;2.05;;;0.98;;
74648;SDS011;63168;49.280;7.214;2023-01-29T03:45:26;2.30;;;1.20;;
74648;SDS011;63168;49.280;7.214;2023-01-29T03:48:00;1.90;;;1.08;;
74648;SDS011;63168;49.280;7.214;2023-01-29T03:50:32;1.80;;;1.00;;
74648;SDS011;63168;49.280;7.214;2023-01-29T03:53:04;1.90;;;0.98;;
74648;SDS011;63168;49.280;7.214;2023-01-29T03:55:40;2.05;;;1.10;;
74648;SDS011;63168;49.280;7.214;2023-01-29T03:58:13;1.95;;;0.90;;
74648;SDS011;63168;49.280;7.214;2023-01-29T04:00:48;2.00;;;1.08;;
74648;SDS011;63168;49.280;7.214;2023-01-29T04:03:18;2.13;;;1.03;;
74648;SDS011;63168;49.280;7.214;2023-01-29T04:05:49;1.65;;;1.00;;
74648;SDS011;63168;49.280;7.214;2023-01-29T04:08:19;1.97;;;1.07;;
74648;SDS011;63168;49.280;7.214;2023-01-29T04:10:49;1.98;;;0.90;;
74648;SDS011;63168;49.280;7.214;2023-01-29T04:13:17;1.63;;;0.90;;
74648;SDS011;63168;49.280;7.214;2023-01-29T04:15:45;1.80;;;0.90;;
74648;SDS011;63168;49.280;7.214;2023-01-29T04:18:16;1.80;;;1.00;;
74648;SDS011;63168;49.280;7.214;2023-01-29T04:20:41;2.47;;;1.00;;
74648;SDS011;63168;49.280;7.214;2023-01-29T04:23:16;1.48;;;0.90;;
74648;SDS011;63168;49.280;7.214;2023-01-29T04:25:45;2.15;;;1.10;;
74648;SDS011;63168;49.280;7.214;2023-01-29T04:28:17;1.60;;;0.90;;
74648;SDS011;63168;49.280;7.214;2023-01-29T04:30:50;1.60;;;1.00;;
74648;SDS011;63168;49.280;7.214;2023-01-29T04:33:23;1.97;;;1.07;;
74648;SDS011;63168;49.280;7.214;2023-01-29T04:36:02;2.00;;;0.90;;
74648;SDS011;63168;49.280;7.214;2023-01-29T04:38:41;2.10;;;1.20;;
74648;SDS011;63168;49.280;7.214;2023-01-29T04:41:18;1.50;;;0.90;;
74648;SDS011;63168;49.280;7.214;2023-01-29T04:43:47;1.88;;;0.98;;
74648;SDS011;63168;49.280;7.214;2023-01-29T04:46:24;1.90;;;0.90;;
74648;SDS011;63168;49.280;7.214;2023-01-29T04:48:59;1.45;;;0.90;;
74648;SDS011;63168;49.280;7.214;2023-01-29T04:51:37;1.48;;;0.90;;
74648;SDS011;63168;49.280;7.214;2023-01-29T04:54:12;2.03;;;0.90;;
74648;SDS011;63168;49.280;7.214;2023-01-29T04:56:46;1.27;;;0.77;;
74648;SDS011;63168;49.280;7.214;2023-01-29T04:59:18;1.55;;;0.90;;
74648;SDS011;63168;49.280;7.214;2023-01-29T05:01:48;1.45;;;0.90;;
74648;SDS011;63168;49.280;7.214;2023-01-29T05:04:17;1.50;;;0.73;;
74648;SDS011;63168;49.280;7.214;2023-01-29T05:06:44;1.45;;;0.90;;
74648;SDS011;63168;49.280;7.214;2023-01-29T05:09:11;1.23;;;0.70;;
74648;SDS011;63168;49.280;7.214;2023-01-29T05:11:38;1.20;;;0.80;;
74648;SDS011;63168;49.280;7.214;2023-01-29T05:14:05;1.38;;;0.90;;
74648;SDS011;63168;49.280;7.214;2023-01-29T05:16:37;1.80;;;0.90;;
74648;SDS011;63168;49.280;7.214;2023-01-29T05:19:06;1.48;;;0.70;;
74648;SDS011;63168;49.280;7.214;2023-01-29T05:21:34;1.70;;;0.98;;
74648;SDS011;63168;49.280;7.214;2023-01-29T05:24:05;2.10;;;0.90;;
74648;SDS011;63168;49.280;7.214;2023-01-29T05:26:32;2.00;;;0.90;;
74648;SDS011;63168;49.280;7.214;2023-01-29T05:29:17;1.40;;;0.80;;
74648;SDS011;63168;49.280;7.214;2023-01-29T05:31:42;1.52;;;0.70;;
74648;SDS011;63168;49.280;7.214;2023-01-29T05:34:08;1.53;;;0.70;;
74648;SDS011;63168;49.280;7.214;2023-01-29T05:36:35;1.10;;;0.70;;
74648;SDS011;63168;49.280;7.214;2023-01-29T05:39:00;1.50;;;0.80;;
74648;SDS011;63168;49.280;7.214;2023-01-29T05:41:26;1.47;;;0.80;;
74648;SDS011;63168;49.280;7.214;2023-01-29T05:43:51;1.42;;;0.80;;
74648;SDS011;63168;49.280;7.214;2023-01-29T05:46:17;2.00;;;0.80;;
74648;SDS011;63168;49.280;7.214;2023-01-29T05:48:42;1.60;;;0.77;;
74648;SDS011;63168;49.280;7.214;2023-01-29T05:51:08;1.60;;;0.80;;
74648;SDS011;63168;49.280;7.214;2023-01-29T05:53:34;1.57;;;0.80;;
74648;SDS011;63168;49.280;7.214;2023-01-29T05:56:00;1.30;;;0.80;;
74648;SDS011;63168;49.280;7.214;2023-01-29T05:58:26;1.58;;;0.90;;
74648;SDS011;63168;49.280;7.214;2023-01-29T06:00:51;1.33;;;0.87;;
74648;SDS011;63168;49.280;7.214;2023-01-29T06:03:17;1.27;;;0.70;;
74648;SDS011;63168;49.280;7.214;2023-01-29T06:05:42;1.50;;;0.83;;
74648;SDS011;63168;49.280;7.214;2023-01-29T06:08:08;1.73;;;0.80;;
74648;SDS011;63168;49.280;7.214;2023-01-29T06:10:35;1.20;;;0.80;;
74648;SDS011;63168;49.280;7.214;2023-01-29T06:13:00;2.33;;;1.00;;
74648;SDS011;63168;49.280;7.214;2023-01-29T06:15:25;1.27;;;0.67;;
74648;SDS011;63168;49.280;7.214;2023-01-29T06:17:52;1.60;;;0.80;;
74648;SDS011;63168;49.280;7.214;2023-01-29T06:20:17;1.90;;;0.90;;
74648;SDS011;63168;49.280;7.214;2023-01-29T06:22:43;1.40;;;0.70;;
74648;SDS011;63168;49.280;7.214;2023-01-29T06:25:08;0.93;;;0.60;;
74648;SDS011;63168;49.280;7.214;2023-01-29T06:27:35;1.38;;;0.80;;
74648;SDS011;63168;49.280;7.214;2023-01-29T06:30:01;1.67;;;0.80;;
74648;SDS011;63168;49.280;7.214;2023-01-29T06:32:26;1.63;;;0.80;;
74648;SDS011;63168;49.280;7.214;2023-01-29T06:34:51;1.85;;;0.95;;
74648;SDS011;63168;49.280;7.214;2023-01-29T06:37:17;1.77;;;0.80;;
74648;SDS011;63168;49.280;7.214;2023-01-29T06:39:42;1.50;;;0.77;;
74648;SDS011;63168;49.280;7.214;2023-01-29T06:42:08;1.52;;;0.80;;
74648;SDS011;63168;49.280;7.214;2023-01-29T06:44:36;1.60;;;0.90;;
74648;SDS011;63168;49.280;7.214;2023-01-29T06:47:01;1.20;;;0.88;;
74648;SDS011;63168;49.280;7.214;2023-01-29T06:49:27;1.52;;;0.80;;
74648;SDS011;63168;49.280;7.214;2023-01-29T06:51:52;1.57;;;0.80;;
74648;SDS011;63168;49.280;7.214;2023-01-29T06:54:18;2.20;;;1.00;;
74648;SDS011;63168;49.280;7.214;2023-01-29T06:56:43;1.23;;;0.73;;
74648;SDS011;63168;49.280;7.214;2023-01-29T06:59:09;1.60;;;0.67;;
74648;SDS011;63168;49.280;7.214;2023-01-29T07:01:38;1.60;;;0.90;;
74648;SDS011;63168;49.280;7.214;2023-01-29T07:04:08;1.73;;;0.88;;
74648;SDS011;63168;49.280;7.214;2023-01-29T07:06:34;1.55;;;1.00;;
74648;SDS011;63168;49.280;7.214;2023-01-29T07:08:59;1.07;;;0.70;;
74648;SDS011;63168;49.280;7.214;2023-01-29T07:11:25;2.10;;;0.90;;
74648;SDS011;63168;49.280;7.214;2023-01-29T07:13:50;1.23;;;0.70;;
74648;SDS011;63168;49.280;7.214;2023-01-29T07:16:15;1.03;;;0.70;;
74648;SDS011;63168;49.280;7.214;2023-01-29T07:18:44;1.17;;;0.70;;
74648;SDS011;63168;49.280;7.214;2023-01-29T07:21:09;1.45;;;0.80;;
74648;SDS011;63168;49.280;7.214;2023-01-29T07:23:35;1.10;;;0.60;;
74648;SDS011;63168;49.280;7.214;2023-01-29T07:26:02;1.02;;;0.70;;
74648;SDS011;63168;49.280;7.214;2023-01-29T07:28:28;1.17;;;0.70;;
74648;SDS011;63168;49.280;7.214;2023-01-29T07:30:55;1.33;;;0.70;;
74648;SDS011;63168;49.280;7.214;2023-01-29T07:33:21;1.45;;;0.77;;
74648;SDS011;63168;49.280;7.214;2023-01-29T07:35:47;1.75;;;0.70;;
74648;SDS011;63168;49.280;7.214;2023-01-29T07:38:13;1.15;;;0.70;;
74648;SDS011;63168;49.280;7.214;2023-01-29T07:40:39;1.13;;;0.70;;
74648;SDS011;63168;49.280;7.214;2023-01-29T07:43:05;1.33;;;0.70;;
74648;SDS011;63168;49.280;7.214;2023-01-29T07:45:32;0.90;;;0.60;;
74648;SDS011;63168;49.280;7.214;2023-01-29T07:47:58;1.30;;;0.70;;
74648;SDS011;63168;49.280;7.214;2023-01-29T07:50:25;1.53;;;0.70;;
74648;SDS011;63168;49.280;7.214;2023-01-29T07:52:53;1.20;;;0.73;;
74648;SDS011;63168;49.280;7.214;2023-01-29T07:55:19;1.20;;;0.70;;
74648;SDS011;63168;49.280;7.214;2023-01-29T07:57:45;0.93;;;0.75;;
74648;SDS011;63168;49.280;7.214;2023-01-29T08:00:11;7.90;;;3.03;;
74648;SDS011;63168;49.280;7.214;2023-01-29T08:02:38;8.07;;;2.75;;
74648;SDS011;63168;49.280;7.214;2023-01-29T08:05:04;7.80;;;2.93;;
74648;SDS011;63168;49.280;7.214;2023-01-29T08:07:33;8.23;;;2.80;;
74648;SDS011;63168;49.280;7.214;2023-01-29T08:10:02;4.87;;;3.10;;
74648;SDS011;63168;49.280;7.214;2023-01-29T08:12:28;5.32;;;3.47;;
74648;SDS011;63168;49.280;7.214;2023-01-29T08:14:54;5.93;;;3.50;;
74648;SDS011;63168;49.280;7.214;2023-01-29T08:17:19;5.50;;;3.38;;
74648;SDS011;63168;49.280;7.214;2023-01-29T08:19:45;5.67;;;2.73;;
74648;SDS011;63168;49.280;7.214;2023-01-29T08:22:10;4.50;;;2.63;;
74648;SDS011;63168;49.280;7.214;2023-01-29T08:24:36;4.25;;;2.50;;
74648;SDS011;63168;49.280;7.214;2023-01-29T08:27:03;6.83;;;4.03;;
74648;SDS011;63168;49.280;7.214;2023-01-29T08:29:28;9.45;;;4.22;;
74648;SDS011;63168;49.280;7.214;2023-01-29T08:31:57;6.50;;;3.70;;
74648;SDS011;63168;49.280;7.214;2023-01-29T08:34:22;6.05;;;4.03;;
74648;SDS011;63168;49.280;7.214;2023-01-29T08:36:48;5.28;;;3.08;;
74648;SDS011;63168;49.280;7.214;2023-01-29T08:39:13;6.07;;;3.83;;
74648;SDS011;63168;49.280;7.214;2023-01-29T08:41:39;7.00;;;3.90;;
74648;SDS011;63168;49.280;7.214;2023-01-29T08:44:05;7.15;;;3.53;;
74648;SDS011;63168;49.280;7.214;2023-01-29T08:46:31;6.00;;;3.40;;
74648;SDS011;63168;49.280;7.214;2023-01-29T08:48:57;6.90;;;3.30;;
74648;SDS011;63168;49.280;7.214;2023-01-29T08:51:23;4.95;;;3.10;;
74648;SDS011;63168;49.280;7.214;2023-01-29T08:53:49;6.07;;;3.80;;
74648;SDS011;63168;49.280;7.214;2023-01-29T08:56:14;5.20;;;2.90;;
74648;SDS011;63168;49.280;7.214;2023-01-29T08:58:40;6.57;;;3.10;;
74648;SDS011;63168;49.280;7.214;2023-01-29T09:01:08;5.13;;;3.20;;
74648;SDS011;63168;49.280;7.214;2023-01-29T09:03:34;5.90;;;3.17;;
74648;SDS011;63168;49.280;7.214;2023-01-29T09:06:00;5.75;;;3.10;;
74648;SDS011;63168;49.280;7.214;2023-01-29T09:08:25;5.87;;;3.30;;
74648;SDS011;63168;49.280;7.214;2023-01-29T09:10:50;5.30;;;3.17;;
74648;SDS011;63168;49.280;7.214;2023-01-29T09:13:16;5.33;;;3.00;;
74648;SDS011;63168;49.280;7.214;2023-01-29T09:15:41;5.47;;;3.10;;
74648;SDS011;63168;49.280;7.214;2023-01-29T09:18:08;6.20;;;3.33;;
74648;SDS011;63168;49.280;7.214;2023-01-29T09:20:33;5.77;;;2.77;;
74648;SDS011;63168;49.280;7.214;2023-01-29T09:23:02;5.40;;;3.10;;
74648;SDS011;63168;49.280;7.214;2023-01-29T09:25:29;4.87;;;2.73;;
74648;SDS011;63168;49.280;7.214;2023-01-29T09:27:54;4.60;;;2.80;;
74648;SDS011;63168;49.280;7.214;2023-01-29T09:30:19;5.30;;;2.90;;
74648;SDS011;63168;49.280;7.214;2023-01-29T09:32:45;4.40;;;2.53;;
74648;SDS011;63168;49.280;7.214;2023-01-29T09:35:12;5.00;;;2.40;;
74648;SDS011;63168;49.280;7.214;2023-01-29T09:37:37;5.15;;;2.80;;
74648;SDS011;63168;49.280;7.214;2023-01-29T09:40:03;5.37;;;2.83;;
74648;SDS011;63168;49.280;7.214;2023-01-29T09:42:30;4.97;;;2.50;;
74648;SDS011;63168;49.280;7.214;2023-01-29T09:45:07;5.15;;;2.70;;
74648;SDS011;63168;49.280;7.214;2023-01-29T09:47:36;5.07;;;2.78;;
74648;SDS011;63168;49.280;7.214;2023-01-29T09:50:02;4.70;;;2.63;;
74648;SDS011;63168;49.280;7.214;2023-01-29T09:52:32;4.53;;;2.35;;
74648;SDS011;63168;49.280;7.214;2023-01-29T09:55:03;5.17;;;2.57;;
74648;SDS011;63168;49.280;7.214;2023-01-29T09:57:38;5.10;;;2.47;;
74648;SDS011;63168;49.280;7.214;2023-01-29T10:00:12;4.37;;;2.50;;
74648;SDS011;63168;49.280;7.214;2023-01-29T10:02:50;4.95;;;3.20;;
74648;SDS011;63168;49.280;7.214;2023-01-29T10:05:32;5.55;;;2.42;;
74648;SDS011;63168;49.280;7.214;2023-01-29T10:08:15;5.05;;;2.45;;
74648;SDS011;63168;49.280;7.214;2023-01-29T10:11:01;5.43;;;2.75;;
74648;SDS011;63168;49.280;7.214;2023-01-29T10:13:38;4.60;;;2.50;;
74648;SDS011;63168;49.280;7.214;2023-01-29T10:16:22;3.95;;;2.33;;
74648;SDS011;63168;49.280;7.214;2023-01-29T10:19:06;4.77;;;2.60;;
74648;SDS011;63168;49.280;7.214;2023-01-29T10:21:46;4.10;;;2.33;;
74648;SDS011;63168;49.280;7.214;2023-01-29T10:24:28;6.82;;;2.67;;
74648;SDS011;63168;49.280;7.214;2023-01-29T10:27:00;6.25;;;3.05;;
74648;SDS011;63168;49.280;7.214;2023-01-29T10:29:27;7.57;;;2.85;;
74648;SDS011;63168;49.280;7.214;2023-01-29T10:31:56;5.57;;;2.50;;
74648;SDS011;63168;49.280;7.214;2023-01-29T10:34:29;5.72;;;2.70;;
74648;SDS011;63168;49.280;7.214;2023-01-29T10:36:59;5.43;;;3.03;;
74648;SDS011;63168;49.280;7.214;2023-01-29T10:39:33;8.15;;;3.50;;
74648;SDS011;63168;49.280;7.214;2023-01-29T10:42:10;5.70;;;2.85;;
74648;SDS011;63168;49.280;7.214;2023-01-29T10:44:46;6.85;;;2.90;;
74648;SDS011;63168;49.280;7.214;2023-01-29T10:47:31;5.80;;;2.92;;
74648;SDS011;63168;49.280;7.214;2023-01-29T10:50:14;5.20;;;3.00;;
74648;SDS011;63168;49.280;7.214;2023-01-29T10:52:49;5.90;;;3.17;;
74648;SDS011;63168;49.280;7.214;2023-01-29T10:55:31;5.50;;;2.77;;
74648;SDS011;63168;49.280;7.214;2023-01-29T10:58:06;5.35;;;3.17;;
74648;SDS011;63168;49.280;7.214;2023-01-29T11:00:39;6.68;;;2.83;;
74648;SDS011;63168;49.280;7.214;2023-01-29T11:03:15;6.22;;;3.10;;
74648;SDS011;63168;49.280;7.214;2023-01-29T11:05:43;6.38;;;3.10;;
74648;SDS011;63168;49.280;7.214;2023-01-29T11:08:16;5.43;;;2.70;;
74648;SDS011;63168;49.280;7.214;2023-01-29T11:10:46;4.70;;;2.55;;
74648;SDS011;63168;49.280;7.214;2023-01-29T11:13:18;4.78;;;2.65;;
74648;SDS011;63168;49.280;7.214;2023-01-29T11:15:47;5.38;;;2.70;;
74648;SDS011;63168;49.280;7.214;2023-01-29T11:18:16;4.80;;;2.73;;
74648;SDS011;63168;49.280;7.214;2023-01-29T11:20:42;5.30;;;2.67;;
74648;SDS011;63168;49.280;7.214;2023-01-29T11:25:53;6.80;;;2.67;;
74648;SDS011;63168;49.280;7.214;2023-01-29T11:28:34;4.53;;;2.75;;
74648;SDS011;63168;49.280;7.214;2023-01-29T11:31:00;5.65;;;2.92;;
74648;SDS011;63168;49.280;7.214;2023-01-29T11:33:26;4.40;;;2.53;;
74648;SDS011;63168;49.280;7.214;2023-01-29T11:35:52;5.55;;;2.83;;
74648;SDS011;63168;49.280;7.214;2023-01-29T11:38:20;4.45;;;2.40;;
74648;SDS011;63168;49.280;7.214;2023-01-29T11:40:48;7.40;;;3.70;;
74648;SDS011;63168;49.280;7.214;2023-01-29T11:43:19;5.32;;;3.15;;
74648;SDS011;63168;49.280;7.214;2023-01-29T11:45:47;7.47;;;3.13;;
74648;SDS011;63168;49.280;7.214;2023-01-29T11:48:15;6.25;;;2.97;;
74648;SDS011;63168;49.280;7.214;2023-01-29T11:50:43;4.90;;;2.90;;
74648;SDS011;63168;49.280;7.214;2023-01-29T11:53:19;8.13;;;4.10;;
74648;SDS011;63168;49.280;7.214;2023-01-29T11:55:48;6.75;;;3.65;;
74648;SDS011;63168;49.280;7.214;2023-01-29T11:58:15;8.85;;;3.90;;
74648;SDS011;63168;49.280;7.214;2023-01-29T12:00:45;7.57;;;3.40;;
74648;SDS011;63168;49.280;7.214;2023-01-29T12:03:15;7.32;;;3.53;;
74648;SDS011;63168;49.280;7.214;2023-01-29T12:05:51;6.93;;;3.28;;
74648;SDS011;63168;49.280;7.214;2023-01-29T12:08:19;9.25;;;4.53;;
74648;SDS011;63168;49.280;7.214;2023-01-29T12:10:47;9.23;;;3.67;;
74648;SDS011;63168;49.280;7.214;2023-01-29T12:13:17;9.38;;;4.40;;
74648;SDS011;63168;49.280;7.214;2023-01-29T12:16:03;10.43;;;6.20;;
74648;SDS011;63168;49.280;7.214;2023-01-29T12:18:35;7.37;;;4.30;;
74648;SDS011;63168;49.280;7.214;2023-01-29T12:21:09;8.40;;;4.07;;
74648;SDS011;63168;49.280;7.214;2023-01-29T12:23:40;8.65;;;4.53;;
74648;SDS011;63168;49.280;7.214;2023-01-29T12:26:17;7.93;;;4.32;;
74648;SDS011;63168;49.280;7.214;2023-01-29T12:28:50;9.05;;;4.32;;
74648;SDS011;63168;49.280;7.214;2023-01-29T12:31:31;10.40;;;4.47;;
74648;SDS011;63168;49.280;7.214;2023-01-29T12:34:04;8.57;;;4.43;;
74648;SDS011;63168;49.280;7.214;2023-01-29T12:36:40;10.27;;;4.22;;
74648;SDS011;63168;49.280;7.214;2023-01-29T12:39:11;7.68;;;4.50;;
74648;SDS011;63168;49.280;7.214;2023-01-29T12:41:41;7.72;;;3.90;;
74648;SDS011;63168;49.280;7.214;2023-01-29T12:44:12;6.78;;;3.85;;
74648;SDS011;63168;49.280;7.214;2023-01-29T12:46:45;7.55;;;3.97;;
74648;SDS011;63168;49.280;7.214;2023-01-29T12:49:15;9.07;;;4.73;;
74648;SDS011;63168;49.280;7.214;2023-01-29T12:51:46;7.60;;;3.88;;
74648;SDS011;63168;49.280;7.214;2023-01-29T12:54:18;6.25;;;3.80;;
74648;SDS011;63168;49.280;7.214;2023-01-29T12:56:49;8.27;;;4.75;;
74648;SDS011;63168;49.280;7.214;2023-01-29T12:59:18;8.38;;;4.10;;
74648;SDS011;63168;49.280;7.214;2023-01-29T13:01:54;8.38;;;4.35;;
74648;SDS011;63168;49.280;7.214;2023-01-29T13:04:27;6.00;;;3.60;;
74648;SDS011;63168;49.280;7.214;2023-01-29T13:07:01;7.60;;;3.92;;
74648;SDS011;63168;49.280;7.214;2023-01-29T13:09:33;6.67;;;3.80;;
74648;SDS011;63168;49.280;7.214;2023-01-29T13:12:01;7.00;;;3.95;;
74648;SDS011;63168;49.280;7.214;2023-01-29T13:14:30;6.97;;;3.80;;
74648;SDS011;63168;49.280;7.214;2023-01-29T13:17:08;7.88;;;4.00;;
74648;SDS011;63168;49.280;7.214;2023-01-29T13:19:39;6.60;;;4.07;;
74648;SDS011;63168;49.280;7.214;2023-01-29T13:22:11;10.70;;;6.30;;
74648;SDS011;63168;49.280;7.214;2023-01-29T13:24:42;13.10;;;7.03;;
74648;SDS011;63168;49.280;7.214;2023-01-29T13:27:13;13.40;;;7.83;;
74648;SDS011;63168;49.280;7.214;2023-01-29T13:29:46;9.70;;;7.10;;
74648;SDS011;63168;49.280;7.214;2023-01-29T13:32:17;12.77;;;7.80;;
74648;SDS011;63168;49.280;7.214;2023-01-29T13:34:45;13.05;;;8.15;;
74648;SDS011;63168;49.280;7.214;2023-01-29T13:37:15;13.90;;;8.10;;
74648;SDS011;63168;49.280;7.214;2023-01-29T13:39:46;13.77;;;8.33;;
74648;SDS011;63168;49.280;7.214;2023-01-29T13:42:15;13.13;;;8.93;;
74648;SDS011;63168;49.280;7.214;2023-01-29T13:44:44;13.23;;;8.77;;
74648;SDS011;63168;49.280;7.214;2023-01-29T13:47:19;13.27;;;9.13;;
74648;SDS011;63168;49.280;7.214;2023-01-29T13:49:52;13.55;;;8.95;;
74648;SDS011;63168;49.280;7.214;2023-01-29T13:52:22;12.88;;;8.93;;
74648;SDS011;63168;49.280;7.214;2023-01-29T13:54:56;14.27;;;9.55;;
74648;SDS011;63168;49.280;7.214;2023-01-29T14:09:02;16.60;;;11.63;;
74648;SDS011;63168;49.280;7.214;2023-01-29T14:11:32;14.93;;;10.75;;
74648;SDS011;63168;49.280;7.214;2023-01-29T14:13:59;16.58;;;11.05;;
74648;SDS011;63168;49.280;7.214;2023-01-29T14:16:26;17.80;;;11.07;;
74648;SDS011;63168;49.280;7.214;2023-01-29T14:19:02;15.93;;;11.50;;
74648;SDS011;63168;49.280;7.214;2023-01-29T14:21:29;16.77;;;12.17;;
74648;SDS011;63168;49.280;7.214;2023-01-29T14:23:57;16.65;;;11.65;;
74648;SDS011;63168;49.280;7.214;2023-01-29T14:26:33;17.05;;;11.35;;
74648;SDS011;63168;49.280;7.214;2023-01-29T14:29:14;17.10;;;12.70;;
74648;SDS011;63168;49.280;7.214;2023-01-29T14:31:43;17.95;;;13.25;;
74648;SDS011;63168;49.280;7.214;2023-01-29T14:34:16;20.13;;;12.20;;
74648;SDS011;63168;49.280;7.214;2023-01-29T14:36:46;18.47;;;12.63;;
74648;SDS011;63168;49.280;7.214;2023-01-29T14:39:20;19.90;;;12.93;;
74648;SDS011;63168;49.280;7.214;2023-01-29T14:41:55;18.40;;;13.27;;
74648;SDS011;63168;49.280;7.214;2023-01-29T14:47:20;17.52;;;12.80;;
74648;SDS011;63168;49.280;7.214;2023-01-29T14:50:46;16.83;;;12.23;;
74648;SDS011;63168;49.280;7.214;2023-01-29T14:53:16;15.50;;;11.45;;
74648;SDS011;63168;49.280;7.214;2023-01-29T14:55:47;15.15;;;11.18;;
74648;SDS011;63168;49.280;7.214;2023-01-29T14:58:17;16.90;;;10.68;;
74648;SDS011;63168;49.280;7.214;2023-01-29T15:00:48;16.50;;;10.73;;
74648;SDS011;63168;49.280;7.214;2023-01-29T15:03:18;14.48;;;9.85;;
74648;SDS011;63168;49.280;7.214;2023-01-29T15:05:53;13.52;;;9.63;;
74648;SDS011;63168;49.280;7.214;2023-01-29T15:08:20;13.77;;;8.93;;
74648;SDS011;63168;49.280;7.214;2023-01-29T15:10:54;12.50;;;8.55;;
74648;SDS011;63168;49.280;7.214;2023-01-29T15:13:42;11.48;;;8.05;;
74648;SDS011;63168;49.280;7.214;2023-01-29T15:16:15;10.13;;;7.28;;
74648;SDS011;63168;49.280;7.214;2023-01-29T15:18:45;10.83;;;7.30;;
74648;SDS011;63168;49.280;7.214;2023-01-29T15:21:17;9.27;;;6.78;;
74648;SDS011;63168;49.280;7.214;2023-01-29T15:23:43;8.27;;;5.85;;